Time;durP1;ratioP1;P1;durP2;ratioP2;P2;SDS_P1;SDS_P2;PMS_P1;PMS_P2;Temp;Humidity;BMP_temperature;BMP_pressure;BME280_temperature;BME280_humidity;BME280_pressure;Samples;Min_cycle;Max_cycle;Signal;HPM_P1;HPM_P2
2022/06/14 00:03:05;;;;;;;;;;;;;;;;;;5077620;28;19932;-81
2022/06/14 00:05:31;;;;;;;;;;;;;;;;;;5059941;28;19951;-82
2022/06/14 00:07:57;;;;;;;;;;;;;;;;;;5061883;28;19923;-82
2022/06/14 00:10:23;;;;;;;;;;;;;;;;;;5063746;28;20011;-81
2022/06/14 00:12:49;;;;;;;;;;;;;;;;;;5051775;28;19920;-82
2022/06/14 00:15:15;;;;;;;;;;;;;;;;;;5053196;28;19924;-79
2022/06/14 00:17:41;;;;;;;;;;;;;;;;;;5074575;28;19977;-82
2022/06/14 00:20:06;;;;;;;;;;;;;;;;;;5079697;28;20290;-81
2022/06/14 00:22:32;;;;;;;;;;;;;;;;;;5052794;28;19928;-82
2022/06/14 00:24:58;;;;;;;;;;;;;;;;;;5070495;28;19924;-81
2022/06/14 00:27:24;;;;;;;;;;;;;;;;;;5054018;28;19932;-82
2022/06/14 00:29:50;;;;;;;;;;;;;;;;;;5074150;27;20276;-81
2022/06/14 00:32:16;;;;;;;;;;;;;;;;;;5071835;28;19928;-80
2022/06/14 00:34:42;;;;;;;;;;;;;;;;;;5055492;28;19931;-81
2022/06/14 00:37:08;;;;;;;;;;;;;;;;;;5058316;28;19945;-81
2022/06/14 00:39:34;;;;;;;;;;;;;;;;;;5067505;28;20536;-82
2022/06/14 00:42:00;;;;;;;;;;;;;;;;;;5077266;28;20278;-83
2022/06/14 00:44:26;;;;;;;;;;;;;;;;;;5053905;28;20011;-83
2022/06/14 00:46:52;;;;;;;;;;;;;;;;;;5056069;28;19927;-81
2022/06/14 00:49:18;;;;;;;;;;;;;;;;;;5055475;28;19932;-82
2022/06/14 00:51:44;;;;;;;;;;;;;;;;;;5070419;28;19928;-82
2022/06/14 00:54:10;;;;;;;;;;;;;;;;;;5055729;28;19938;-79
2022/06/14 00:56:36;;;;;;;;;;;;;;;;;;5073252;28;19928;-78
2022/06/14 00:59:02;;;;;;;;;;;;;;;;;;5099328;28;19971;-82
2022/06/14 01:01:28;;;;;;;;;;;;;;;;;;5067584;28;19924;-79
2022/06/14 01:03:54;;;;;;;;;;;;;;;;;;5076722;28;19924;-79
2022/06/14 01:06:19;;;;;;;;;;;;;;;;;;5076626;28;19990;-79
2022/06/14 01:08:45;;;;;;;;;;;;;;;;;;5071039;28;20026;-79
2022/06/14 01:11:11;;;;;;;;;;;;;;;;;;5073810;28;19974;-78
2022/06/14 01:13:37;;;;;;;;;;;;;;;;;;5095211;28;20402;-79
2022/06/14 01:16:03;;;;;;;;;;;;;;;;;;5067523;28;19932;-78
2022/06/14 01:18:29;;;;;;;;;;;;;;;;;;5075678;28;19928;-78
2022/06/14 01:20:55;;;;;;;;;;;;;;;;;;5097330;28;20019;-78
2022/06/14 01:23:21;;;;;;;;;;;;;;;;;;5075297;28;20025;-79
2022/06/14 01:25:47;;;;;;;;;;;;;;;;;;5097650;28;19974;-80
2022/06/14 01:28:13;;;;;;;;;;;;;;;;;;5071707;28;20359;-78
2022/06/14 01:30:39;;;;;;;;;;;;;;;;;;5070500;28;19924;-79
2022/06/14 01:33:05;;;;;;;;;;;;;;;;;;5055534;28;19928;-79
2022/06/14 01:35:32;;;;;;;;;;;;;;;;;;5092716;28;19924;-80
2022/06/14 01:37:58;;;;;;;;;;;;;;;;;;5078795;28;20342;-79
2022/06/14 01:40:24;;;;;;;;;;;;;;;;;;5074063;28;19924;-79
2022/06/14 01:42:50;;;;;;;;;;;;;;;;;;5073235;28;19932;-79
2022/06/14 01:45:16;;;;;;;;;;;;;;;;;;5095980;28;19924;-79
2022/06/14 01:47:42;;;;;;;;;;;;;;;;;;5072610;28;19932;-79
2022/06/14 01:52:52;;;;;;;;;;;;;;;;;;5096050;28;20401;-79
2022/06/14 01:55:18;;;;;;;;;;;;;;;;;;5073853;28;19927;-78
2022/06/14 01:57:44;;;;;;;;;;;;;;;;;;5060327;28;19924;-78
2022/06/14 02:00:10;;;;;;;;;;;;;;;;;;5078204;28;19924;-78
2022/06/14 02:02:36;;;;;;;;;;;;;;;;;;5098414;28;20010;-79
2022/06/14 02:05:02;;;;;;;;;;;;;;;;;;5080053;28;19924;-78
2022/06/14 02:07:28;;;;;;;;;;;;;;;;;;5076780;28;19936;-79
2022/06/14 02:09:54;;;;;;;;;;;;;;;;;;5083827;28;19974;-79
2022/06/14 02:12:20;;;;;;;;;;;;;;;;;;5083271;28;19924;-79
2022/06/14 02:14:46;;;;;;;;;;;;;;;;;;5096198;28;19931;-78
2022/06/14 02:17:12;;;;;;;;;;;;;;;;;;5087260;28;19927;-78
2022/06/14 02:19:38;;;;;;;;;;;;;;;;;;5094176;28;20267;-78
2022/06/14 02:22:04;;;;;;;;;;;;;;;;;;5080292;28;19924;-78
2022/06/14 02:24:30;;;;;;;;;;;;;;;;;;5089735;28;20003;-79
2022/06/14 02:26:56;;;;;;;;;;;;;;;;;;5078016;28;19928;-79
2022/06/14 02:29:22;;;;;;;;;;;;;;;;;;5100676;28;19931;-80
2022/06/14 02:31:48;;;;;;;;;;;;;;;;;;5077133;28;20283;-78
2022/06/14 02:34:14;;;;;;;;;;;;;;;;;;5078470;28;20010;-78
2022/06/14 02:36:40;;;;;;;;;;;;;;;;;;5067722;28;19928;-79
2022/06/14 02:39:05;;;;;;;;;;;;;;;;;;5086093;28;19935;-78
2022/06/14 02:41:31;;;;;;;;;;;;;;;;;;5086693;28;19935;-79
2022/06/14 02:43:57;;;;;;;;;;;;;;;;;;5085932;28;19931;-78
2022/06/14 02:46:23;;;;;;;;;;;;;;;;;;5086478;28;19931;-78
2022/06/14 02:48:49;;;;;;;;;;;;;;;;;;5076826;28;20018;-80
2022/06/14 02:51:15;;;;;;;;;;;;;;;;;;5063747;28;19935;-81
2022/06/14 02:53:41;;;;;;;;;;;;;;;;;;5086514;28;19935;-79
2022/06/14 02:56:07;;;;;;;;;;;;;;;;;;5080987;28;20027;-79
2022/06/14 02:58:33;;;;;;;;;;;;;;;;;;5105814;28;20276;-79
2022/06/14 03:00:59;;;;;;;;;;;;;;;;;;5086005;28;19986;-80
2022/06/14 03:03:25;;;;;;;;;;;;;;;;;;5077238;28;19985;-78
2022/06/14 03:05:51;;;;;;;;;;;;;;;;;;5095455;28;19931;-78
2022/06/14 03:08:17;;;;;;;;;;;;;;;;;;5089721;28;19932;-77
2022/06/14 03:10:43;;;;;;;;;;;;;;;;;;5099772;28;20088;-78
2022/06/14 03:13:09;;;;;;;;;;;;;;;;;;5110692;28;19924;-78
2022/06/14 03:15:35;;;;;;;;;;;;;;;;;;5058671;28;19981;-79
2022/06/14 03:18:01;;;;;;;;;;;;;;;;;;5094097;28;19927;-78
2022/06/14 03:20:26;;;;;;;;;;;;;;;;;;5097096;28;19928;-78
2022/06/14 03:22:52;;;;;;;;;;;;;;;;;;5086934;28;19924;-78
2022/06/14 03:25:18;;;;;;;;;;;;;;;;;;5074047;28;19934;-79
2022/06/14 03:27:44;;;;;;;;;;;;;;;;;;5095072;28;19990;-77
2022/06/14 03:30:10;;;;;;;;;;;;;;;;;;5082408;28;19924;-77
2022/06/14 03:32:36;;;;;;;;;;;;;;;;;;5077763;28;19928;-78
2022/06/14 03:35:02;;;;;;;;;;;;;;;;;;5075187;28;20454;-79
2022/06/14 03:37:28;;;;;;;;;;;;;;;;;;5073642;28;19975;-77
2022/06/14 03:39:54;;;;;;;;;;;;;;;;;;5106922;28;19923;-78
2022/06/14 03:42:20;;;;;;;;;;;;;;;;;;5099355;28;19928;-78
2022/06/14 03:44:46;;;;;;;;;;;;;;;;;;5089454;28;19923;-78
2022/06/14 03:47:12;;;;;;;;;;;;;;;;;;5075953;28;19928;-77
2022/06/14 03:49:38;;;;;;;;;;;;;;;;;;5077055;28;19924;-78
2022/06/14 03:52:04;;;;;;;;;;;;;;;;;;5086072;28;19939;-77
2022/06/14 03:54:30;;;;;;;;;;;;;;;;;;5083843;28;19928;-77
2022/06/14 03:56:56;;;;;;;;;;;;;;;;;;5083353;28;19924;-77
2022/06/14 03:59:22;;;;;;;;;;;;;;;;;;5082768;28;20015;-77
2022/06/14 04:01:48;;;;;;;;;;;;;;;;;;5092939;28;19977;-77
2022/06/14 04:04:13;;;;;;;;;;;;;;;;;;5077612;28;19924;-77
2022/06/14 04:06:40;;;;;;;;;;;;;;;;;;5087547;28;19934;-78
2022/06/14 04:09:06;;;;;;;;;;;;;;;;;;5061791;28;19931;-77
2022/06/14 04:11:32;;;;;;;;;;;;;;;;;;5110012;28;19927;-78
2022/06/14 04:13:58;;;;;;;;;;;;;;;;;;5089562;28;19924;-78
2022/06/14 04:16:26;;;;;;;;;;;;;;;;;;5078246;28;19928;-77
2022/06/14 04:18:52;;;;;;;;;;;;;;;;;;5062979;28;19928;-79
2022/06/14 04:21:18;;;;;;;;;;;;;;;;;;5100152;28;19924;-79
2022/06/14 04:23:44;;;;;;;;;;;;;;;;;;5086022;28;19935;-78
2022/06/14 04:26:10;;;;;;;;;;;;;;;;;;5078681;28;19931;-77
2022/06/14 04:28:36;;;;;;;;;;;;;;;;;;5076433;28;20021;-78
2022/06/14 04:31:02;;;;;;;;;;;;;;;;;;5082946;28;20449;-77
2022/06/14 04:33:28;;;;;;;;;;;;;;;;;;5094059;28;20027;-78
2022/06/14 04:35:54;;;;;;;;;;;;;;;;;;5071844;28;19947;-77
2022/06/14 04:38:20;;;;;;;;;;;;;;;;;;5078368;28;19950;-78
2022/06/14 04:40:46;;;;;;;;;;;;;;;;;;5075564;28;19938;-78
2022/06/14 04:43:12;;;;;;;;;;;;;;;;;;5075732;28;19924;-77
2022/06/14 04:45:41;;;;;;;;;;;;;;;;;;5078177;28;19975;-78
2022/06/14 04:48:07;;;;;;;;;;;;;;;;;;5079957;28;19924;-77
2022/06/14 04:50:33;;;;;;;;;;;;;;;;;;5096160;28;20409;-78
2022/06/14 04:52:59;;;;;;;;;;;;;;;;;;5096509;28;19943;-77
2022/06/14 04:55:25;;;;;;;;;;;;;;;;;;5058586;28;20361;-78
2022/06/14 04:57:51;;;;;;;;;;;;;;;;;;5080823;28;19938;-77
2022/06/14 05:00:17;;;;;;;;;;;;;;;;;;5091511;28;20605;-77
2022/06/14 05:02:43;;;;;;;;;;;;;;;;;;5075405;28;19924;-78
2022/06/14 05:05:09;;;;;;;;;;;;;;;;;;5075603;28;20290;-78
2022/06/14 05:07:35;;;;;;;;;;;;;;;;;;5078785;28;19936;-78
2022/06/14 05:10:01;;;;;;;;;;;;;;;;;;5083421;28;19971;-77
2022/06/14 05:12:27;;;;;;;;;;;;;;;;;;5076033;28;20315;-79
2022/06/14 05:14:53;;;;;;;;;;;;;;;;;;5082766;28;19924;-78
2022/06/14 05:17:19;;;;;;;;;;;;;;;;;;5090690;28;19955;-78
2022/06/14 05:19:45;;;;;;;;;;;;;;;;;;5077691;28;19928;-78
2022/06/14 05:22:11;;;;;;;;;;;;;;;;;;5089001;28;19924;-78
2022/06/14 05:24:37;;;;;;;;;;;;;;;;;;5078386;28;20027;-79
2022/06/14 05:27:03;;;;;;;;;;;;;;;;;;5071412;28;19924;-80
2022/06/14 05:29:32;;;;;;;;;;;;;;;;;;5075732;28;19931;-79
2022/06/14 05:31:58;;;;;;;;;;;;;;;;;;5078600;28;20358;-79
2022/06/14 05:34:24;;;;;;;;;;;;;;;;;;5078656;28;19931;-78
2022/06/14 05:36:50;;;;;;;;;;;;;;;;;;5079785;28;20065;-78
2022/06/14 05:39:16;;;;;;;;;;;;;;;;;;5076153;28;19928;-78
2022/06/14 05:41:41;;;;;;;;;;;;;;;;;;5083527;28;19928;-79
2022/06/14 05:44:07;;;;;;;;;;;;;;;;;;5076074;28;19925;-79
2022/06/14 05:46:33;;;;;;;;;;;;;;;;;;5085894;28;19978;-79
2022/06/14 05:48:59;;;;;;;;;;;;;;;;;;5092265;28;19928;-78
2022/06/14 05:51:25;;;;;;;;;;;;;;;;;;5083480;28;19924;-79
2022/06/14 05:53:51;;;;;;;;;;;;;;;;;;5081039;28;19932;-79
2022/06/14 05:56:17;;;;;;;;;;;;;;;;;;5081590;28;19930;-78
2022/06/14 05:58:43;;;;;;;;;;;;;;;;;;5079274;28;19990;-79
2022/06/14 06:01:09;;;;;;;;;;;;;;;;;;5091361;28;19924;-77
2022/06/14 06:03:35;;;;;;;;;;;;;;;;;;5073339;28;19932;-79
2022/06/14 06:06:01;;;;;;;;;;;;;;;;;;5086817;28;19975;-78
2022/06/14 06:08:27;;;;;;;;;;;;;;;;;;5092078;28;19924;-79
2022/06/14 06:10:53;;;;;;;;;;;;;;;;;;5057396;28;19970;-78
2022/06/14 06:13:19;;;;;;;;;;;;;;;;;;5070566;28;19924;-78
2022/06/14 06:15:45;;;;;;;;;;;;;;;;;;5074611;28;19924;-79
2022/06/14 06:18:11;;;;;;;;;;;;;;;;;;5099883;28;19970;-78
2022/06/14 06:20:37;;;;;;;;;;;;;;;;;;5084728;28;19923;-79
2022/06/14 06:23:03;;;;;;;;;;;;;;;;;;5077858;28;19924;-79
2022/06/14 06:25:29;;;;;;;;;;;;;;;;;;5072686;28;20405;-80
2022/06/14 06:27:55;;;;;;;;;;;;;;;;;;5077059;28;19928;-79
2022/06/14 06:30:21;;;;;;;;;;;;;;;;;;5072503;28;20036;-79
2022/06/14 06:32:47;;;;;;;;;;;;;;;;;;5077872;28;20383;-79
2022/06/14 06:35:13;;;;;;;;;;;;;;;;;;5077056;28;19935;-80
2022/06/14 06:37:40;;;;;;;;;;;;;;;;;;5078508;28;20378;-79
2022/06/14 06:40:06;;;;;;;;;;;;;;;;;;5057355;28;20016;-79
2022/06/14 06:42:32;;;;;;;;;;;;;;;;;;5083160;28;19998;-79
2022/06/14 06:44:58;;;;;;;;;;;;;;;;;;5078322;28;19939;-79
2022/06/14 06:47:24;;;;;;;;;;;;;;;;;;5100377;28;19924;-79
2022/06/14 06:49:50;;;;;;;;;;;;;;;;;;5089952;28;19970;-79
2022/06/14 06:52:16;;;;;;;;;;;;;;;;;;5074985;28;20018;-79
2022/06/14 06:54:42;;;;;;;;;;;;;;;;;;5084803;28;19934;-79
2022/06/14 06:57:08;;;;;;;;;;;;;;;;;;5091258;28;19933;-79
2022/06/14 06:59:34;;;;;;;;;;;;;;;;;;5075852;28;20507;-78
2022/06/14 07:02:00;;;;;;;;;;;;;;;;;;5077760;28;19931;-78
2022/06/14 07:07:11;;;;;;;;;;;;;;;;;;5103478;28;19930;-78
2022/06/14 07:09:37;;;;;;;;;;;;;;;;;;5077093;28;19924;-78
2022/06/14 07:12:03;;;;;;;;;;;;;;;;;;5077467;28;19946;-79
2022/06/14 07:14:29;;;;;;;;;;;;;;;;;;5080483;28;19940;-79
2022/06/14 07:16:55;;;;;;;;;;;;;;;;;;5061508;28;19967;-79
2022/06/14 07:19:20;;;;;;;;;;;;;;;;;;5090587;28;19924;-79
2022/06/14 07:21:46;;;;;;;;;;;;;;;;;;5081260;28;20027;-79
2022/06/14 07:24:12;;;;;;;;;;;;;;;;;;5101170;28;19928;-79
2022/06/14 07:26:38;;;;;;;;;;;;;;;;;;5085438;28;19927;-78
2022/06/14 07:29:04;;;;;;;;;;;;;;;;;;5084875;28;19978;-80
2022/06/14 07:31:30;;;;;;;;;;;;;;;;;;5076833;28;19927;-79
2022/06/14 07:33:56;;;;;;;;;;;;;;;;;;5082209;28;19924;-78
2022/06/14 07:36:22;;;;;;;;;;;;;;;;;;5090239;28;19927;-79
2022/06/14 07:38:48;;;;;;;;;;;;;;;;;;5079895;28;20423;-79
2022/06/14 07:41:14;;;;;;;;;;;;;;;;;;5097532;28;20274;-78
2022/06/14 07:43:40;;;;;;;;;;;;;;;;;;5079415;28;19974;-77
2022/06/14 07:46:06;;;;;;;;;;;;;;;;;;5074004;28;19932;-79
2022/06/14 07:48:32;;;;;;;;;;;;;;;;;;5077606;28;20018;-79
2022/06/14 07:50:58;;;;;;;;;;;;;;;;;;5095817;28;19924;-79
2022/06/14 07:53:24;;;;;;;;;;;;;;;;;;5073039;28;19932;-78
2022/06/14 07:55:50;;;;;;;;;;;;;;;;;;5093144;28;19935;-78
2022/06/14 07:58:16;;;;;;;;;;;;;;;;;;5075459;28;19964;-78
2022/06/14 08:03:28;;;;;;;;;;;;;;;;;;5083110;28;20018;-79
2022/06/14 08:05:54;;;;;;;;;;;;;;;;;;5074840;28;19970;-79
2022/06/14 08:08:20;;;;;;;;;;;;;;;;;;5078030;28;19985;-78
2022/06/14 08:10:47;;;;;;;;;;;;;;;;;;5080365;28;19974;-79
2022/06/14 08:13:13;;;;;;;;;;;;;;;;;;5077867;28;20321;-79
2022/06/14 08:15:39;;;;;;;;;;;;;;;;;;5094787;28;19924;-79
2022/06/14 08:18:05;;;;;;;;;;;;;;;;;;5067267;28;20012;-79
2022/06/14 08:20:30;;;;;;;;;;;;;;;;;;5077544;28;19929;-80
2022/06/14 08:22:58;;;;;;;;;;;;;;;;;;5089263;28;20416;-79
2022/06/14 08:25:24;;;;;;;;;;;;;;;;;;5077059;28;19971;-80
2022/06/14 08:27:50;;;;;;;;;;;;;;;;;;5073563;28;19920;-79
2022/06/14 08:30:16;;;;;;;;;;;;;;;;;;5092993;28;19970;-79
2022/06/14 08:32:42;;;;;;;;;;;;;;;;;;5080926;28;19936;-79
2022/06/14 08:35:08;;;;;;;;;;;;;;;;;;5097380;28;19924;-79
2022/06/14 08:37:34;;;;;;;;;;;;;;;;;;5099907;28;19930;-80
2022/06/14 08:40:00;;;;;;;;;;;;;;;;;;5089823;28;20324;-78
2022/06/14 08:42:26;;;;;;;;;;;;;;;;;;5084456;28;20294;-79
2022/06/14 08:44:52;;;;;;;;;;;;;;;;;;5087144;28;19928;-79
2022/06/14 08:47:18;;;;;;;;;;;;;;;;;;5075204;28;20379;-79
2022/06/14 08:49:44;;;;;;;;;;;;;;;;;;5094622;28;20440;-79
2022/06/14 08:52:12;;;;;;;;;;;;;;;;;;5078379;28;19927;-79
2022/06/14 08:54:38;;;;;;;;;;;;;;;;;;5085835;28;20014;-79
2022/06/14 08:57:03;;;;;;;;;;;;;;;;;;5086895;28;20035;-79
2022/06/14 08:59:29;;;;;;;;;;;;;;;;;;5095346;28;20401;-79
2022/06/14 09:01:55;;;;;;;;;;;;;;;;;;5076917;28;19931;-79
2022/06/14 09:04:21;;;;;;;;;;;;;;;;;;5103938;28;19959;-81
2022/06/14 09:06:47;;;;;;;;;;;;;;;;;;5077290;28;19924;-80
2022/06/14 09:09:13;;;;;;;;;;;;;;;;;;5095485;28;19927;-80
2022/06/14 09:11:39;;;;;;;;;;;;;;;;;;5079563;28;19955;-81
2022/06/14 09:14:06;;;;;;;;;;;;;;;;;;5072557;28;19928;-81
2022/06/14 09:16:32;;;;;;;;;;;;;;;;;;5071843;28;19932;-81
2022/06/14 09:18:58;;;;;;;;;;;;;;;;;;5052381;28;19924;-76
2022/06/14 09:21:24;;;;;;;;;;;;;;;;;;5092866;28;19928;-77
2022/06/14 09:23:50;;;;;;;;;;;;;;;;;;5089656;28;19923;-77
2022/06/14 09:26:17;;;;;;;;;;;;;;;;;;5089443;28;19993;-77
2022/06/14 09:28:43;;;;;;;;;;;;;;;;;;5075130;28;19920;-76
2022/06/14 09:31:09;;;;;;;;;;;;;;;;;;5095443;28;19984;-76
2022/06/14 09:33:35;;;;;;;;;;;;;;;;;;5088901;28;19963;-76
2022/06/14 09:36:01;;;;;;;;;;;;;;;;;;5092020;28;19935;-75
2022/06/14 09:38:27;;;;;;;;;;;;;;;;;;5093705;28;19928;-75
2022/06/14 09:40:53;;;;;;;;;;;;;;;;;;5094553;28;19935;-76
2022/06/14 09:43:19;;;;;;;;;;;;;;;;;;5089857;28;19924;-75
2022/06/14 09:45:45;;;;;;;;;;;;;;;;;;5088305;28;19955;-75
2022/06/14 09:48:11;;;;;;;;;;;;;;;;;;5090063;28;19924;-75
2022/06/14 09:50:37;;;;;;;;;;;;;;;;;;5095849;28;19931;-76
2022/06/14 09:53:03;;;;;;;;;;;;;;;;;;5088436;28;19935;-75
2022/06/14 09:55:29;;;;;;;;;;;;;;;;;;5093882;28;19938;-75
2022/06/14 09:57:55;;;;;;;;;;;;;;;;;;5093258;28;19978;-75
2022/06/14 10:00:21;;;;;;;;;;;;;;;;;;5092105;28;21908;-76
2022/06/14 10:02:47;;;;;;;;;;;;;;;;;;5091825;28;19928;-75
2022/06/14 10:05:13;;;;;;;;;;;;;;;;;;5096333;28;20341;-75
2022/06/14 10:07:39;;;;;;;;;;;;;;;;;;5090352;28;19955;-81
2022/06/14 10:10:05;;;;;;;;;;;;;;;;;;5087797;28;19928;-77
2022/06/14 10:12:31;;;;;;;;;;;;;;;;;;5068946;28;19973;-76
2022/06/14 10:14:57;;;;;;;;;;;;;;;;;;5088076;28;19920;-76
2022/06/14 10:17:23;;;;;;;;;;;;;;;;;;5088208;28;20023;-76
2022/06/14 10:19:49;;;;;;;;;;;;;;;;;;5095446;28;19978;-76
2022/06/14 10:22:15;;;;;;;;;;;;;;;;;;5087475;28;20010;-75
2022/06/14 10:24:41;;;;;;;;;;;;;;;;;;5094151;28;19924;-76
2022/06/14 10:29:51;;;;;;;;;;;;;;;;;;5088167;28;20020;-75
2022/06/14 10:32:17;;;;;;;;;;;;;;;;;;5090956;28;19943;-75
2022/06/14 10:34:43;;;;;;;;;;;;;;;;;;5074904;28;19931;-75
2022/06/14 10:37:09;;;;;;;;;;;;;;;;;;5092990;28;20579;-75
2022/06/14 10:39:35;;;;;;;;;;;;;;;;;;5099724;28;20387;-76
2022/06/14 10:42:01;;;;;;;;;;;;;;;;;;5099508;28;19920;-76
2022/06/14 10:44:27;;;;;;;;;;;;;;;;;;5095305;28;19924;-76
2022/06/14 10:46:53;;;;;;;;;;;;;;;;;;5091488;28;19932;-75
2022/06/14 10:49:19;;;;;;;;;;;;;;;;;;5092758;28;19938;-77
2022/06/14 10:51:45;;;;;;;;;;;;;;;;;;5093498;28;20082;-75
2022/06/14 10:54:11;;;;;;;;;;;;;;;;;;5094866;28;19924;-75
2022/06/14 10:56:37;;;;;;;;;;;;;;;;;;5095957;28;19975;-76
2022/06/14 10:59:03;;;;;;;;;;;;;;;;;;5076201;28;19932;-76
2022/06/14 11:01:29;;;;;;;;;;;;;;;;;;5090931;28;20310;-76
2022/06/14 11:03:55;;;;;;;;;;;;;;;;;;5092778;28;19998;-76
2022/06/14 11:06:21;;;;;;;;;;;;;;;;;;5101406;28;20378;-75
2022/06/14 11:08:47;;;;;;;;;;;;;;;;;;5099184;28;19946;-75
2022/06/14 11:11:13;;;;;;;;;;;;;;;;;;5087078;28;20331;-76
2022/06/14 11:13:39;;;;;;;;;;;;;;;;;;5094299;28;20462;-76
2022/06/14 11:16:05;;;;;;;;;;;;;;;;;;5084557;28;19935;-76
2022/06/14 11:18:31;;;;;;;;;;;;;;;;;;5096016;28;19970;-75
2022/06/14 11:20:57;;;;;;;;;;;;;;;;;;5106685;28;19950;-76
2022/06/14 11:23:24;;;;;;;;;;;;;;;;;;5108368;28;19977;-75
2022/06/14 11:25:50;;;;;;;;;;;;;;;;;;5101483;28;19924;-79
2022/06/14 11:28:16;;;;;;;;;;;;;;;;;;5080934;28;19928;-77
2022/06/14 11:30:41;;;;;;;;;;;;;;;;;;5058790;28;19924;-75
2022/06/14 11:33:07;;;;;;;;;;;;;;;;;;5091842;28;19931;-75
2022/06/14 11:35:33;;;;;;;;;;;;;;;;;;5093482;28;20053;-75
2022/06/14 11:38:00;;;;;;;;;;;;;;;;;;5098117;28;19924;-75
2022/06/14 11:40:26;;;;;;;;;;;;;;;;;;5092313;28;19931;-77
2022/06/14 11:42:51;;;;;;;;;;;;;;;;;;5107500;28;19950;-75
2022/06/14 11:45:17;;;;;;;;;;;;;;;;;;5099916;28;19973;-74
2022/06/14 11:47:43;;;;;;;;;;;;;;;;;;5093782;28;20398;-75
2022/06/14 11:50:09;;;;;;;;;;;;;;;;;;5075324;28;20430;-76
2022/06/14 11:52:36;;;;;;;;;;;;;;;;;;5099857;28;19927;-77
2022/06/14 11:55:02;;;;;;;;;;;;;;;;;;5075523;28;20023;-76
2022/06/14 11:57:29;;;;;;;;;;;;;;;;;;5092332;28;20358;-76
2022/06/14 11:59:55;;;;;;;;;;;;;;;;;;5099577;28;19930;-77
2022/06/14 12:02:21;;;;;;;;;;;;;;;;;;5078692;28;19924;-77
2022/06/14 12:04:47;;;;;;;;;;;;;;;;;;5072274;28;19924;-77
2022/06/14 12:07:13;;;;;;;;;;;;;;;;;;5077039;28;19935;-76
2022/06/14 12:09:39;;;;;;;;;;;;;;;;;;5092505;28;19927;-76
2022/06/14 12:12:04;;;;;;;;;;;;;;;;;;5101981;28;19979;-78
2022/06/14 12:14:31;;;;;;;;;;;;;;;;;;5077968;28;19990;-76
2022/06/14 12:16:57;;;;;;;;;;;;;;;;;;5086301;28;19967;-76
2022/06/14 12:19:23;;;;;;;;;;;;;;;;;;5085682;28;19960;-76
2022/06/14 12:21:49;;;;;;;;;;;;;;;;;;5069146;28;19924;-77
2022/06/14 12:24:17;;;;;;;;;;;;;;;;;;5096662;28;19924;-78
2022/06/14 12:26:43;;;;;;;;;;;;;;;;;;5104751;28;19939;-76
2022/06/14 12:29:09;;;;;;;;;;;;;;;;;;5107492;28;19923;-77
2022/06/14 12:31:35;;;;;;;;;;;;;;;;;;5094702;28;19928;-78
2022/06/14 12:34:01;;;;;;;;;;;;;;;;;;5065405;28;20342;-77
2022/06/14 12:36:27;;;;;;;;;;;;;;;;;;5097168;28;19924;-77
2022/06/14 12:38:53;;;;;;;;;;;;;;;;;;5092787;28;19928;-77
2022/06/14 12:41:19;;;;;;;;;;;;;;;;;;5093879;28;19928;-76
2022/06/14 12:43:45;;;;;;;;;;;;;;;;;;5094364;28;19931;-74
2022/06/14 12:46:11;;;;;;;;;;;;;;;;;;5098353;28;19934;-76
2022/06/14 12:48:38;;;;;;;;;;;;;;;;;;5092459;28;19932;-77
2022/06/14 12:51:04;;;;;;;;;;;;;;;;;;5091255;28;19932;-77
2022/06/14 12:53:30;;;;;;;;;;;;;;;;;;5095588;28;19924;-77
2022/06/14 12:55:56;;;;;;;;;;;;;;;;;;5105279;28;20382;-77
2022/06/14 12:58:22;;;;;;;;;;;;;;;;;;5093314;28;19937;-77
2022/06/14 13:00:48;;;;;;;;;;;;;;;;;;5075137;28;19924;-77
2022/06/14 13:03:14;;;;;;;;;;;;;;;;;;5075559;28;19924;-77
2022/06/14 13:05:40;;;;;;;;;;;;;;;;;;5092708;28;20284;-77
2022/06/14 13:08:06;;;;;;;;;;;;;;;;;;5093427;28;20443;-77
2022/06/14 13:10:31;;;;;;;;;;;;;;;;;;5093319;28;19931;-77
2022/06/14 13:12:57;;;;;;;;;;;;;;;;;;5075000;28;19931;-77
2022/06/14 13:15:23;;;;;;;;;;;;;;;;;;5092544;28;20303;-78
2022/06/14 13:17:49;;;;;;;;;;;;;;;;;;5105413;28;19968;-77
2022/06/14 13:20:15;;;;;;;;;;;;;;;;;;5094666;28;19928;-77
2022/06/14 13:22:43;;;;;;;;;;;;;;;;;;5101479;28;20407;-77
2022/06/14 13:25:09;;;;;;;;;;;;;;;;;;5074561;28;20376;-77
2022/06/14 13:27:35;;;;;;;;;;;;;;;;;;5092317;28;20013;-77
2022/06/14 13:30:00;;;;;;;;;;;;;;;;;;5099312;28;19930;-77
2022/06/14 13:32:27;;;;;;;;;;;;;;;;;;5084494;28;19930;-77
2022/06/14 13:34:52;;;;;;;;;;;;;;;;;;5101359;28;19928;-77
2022/06/14 13:37:18;;;;;;;;;;;;;;;;;;5081488;28;20295;-77
2022/06/14 13:39:44;;;;;;;;;;;;;;;;;;5101788;28;19928;-77
2022/06/14 13:42:10;;;;;;;;;;;;;;;;;;5100207;28;19924;-76
2022/06/14 13:44:36;;;;;;;;;;;;;;;;;;5098775;28;20364;-77
2022/06/14 13:47:02;;;;;;;;;;;;;;;;;;5085488;28;20323;-79
2022/06/14 13:49:28;;;;;;;;;;;;;;;;;;5092719;28;19982;-79
2022/06/14 13:51:55;;;;;;;;;;;;;;;;;;5102811;28;19932;-77
2022/06/14 13:54:21;;;;;;;;;;;;;;;;;;5100085;28;19931;-77
2022/06/14 13:56:47;;;;;;;;;;;;;;;;;;5095503;28;19931;-76
2022/06/14 13:59:13;;;;;;;;;;;;;;;;;;5093407;28;20406;-77
2022/06/14 14:01:40;;;;;;;;;;;;;;;;;;5086324;28;19936;-77
2022/06/14 14:04:06;;;;;;;;;;;;;;;;;;5080342;28;19928;-76
2022/06/14 14:06:32;;;;;;;;;;;;;;;;;;5100326;28;19931;-77
2022/06/14 14:08:58;;;;;;;;;;;;;;;;;;5083749;28;19931;-77
2022/06/14 14:11:23;;;;;;;;;;;;;;;;;;5103985;28;19930;-77
2022/06/14 14:13:50;;;;;;;;;;;;;;;;;;5103263;28;19924;-77
2022/06/14 14:16:15;;;;;;;;;;;;;;;;;;5102861;28;19931;-77
2022/06/14 14:18:41;;;;;;;;;;;;;;;;;;5105913;28;20363;-77
2022/06/14 14:21:07;;;;;;;;;;;;;;;;;;5103184;28;20294;-78
2022/06/14 14:23:35;;;;;;;;;;;;;;;;;;5073041;28;19931;-77
2022/06/14 14:26:01;;;;;;;;;;;;;;;;;;5102425;28;19919;-81
2022/06/14 14:28:27;;;;;;;;;;;;;;;;;;5065712;28;19973;-77
2022/06/14 14:30:53;;;;;;;;;;;;;;;;;;5100383;28;19928;-76
2022/06/14 14:33:18;;;;;;;;;;;;;;;;;;5097804;28;20362;-76
2022/06/14 14:35:44;;;;;;;;;;;;;;;;;;5067630;28;19930;-76
2022/06/14 14:38:10;;;;;;;;;;;;;;;;;;5079312;28;19924;-75
2022/06/14 14:40:36;;;;;;;;;;;;;;;;;;5100481;28;19924;-79
2022/06/14 14:43:02;;;;;;;;;;;;;;;;;;5080261;28;19932;-77
2022/06/14 14:45:30;;;;;;;;;;;;;;;;;;5113710;28;19924;-81
2022/06/14 14:47:57;;;;;;;;;;;;;;;;;;5084378;28;19939;-77
2022/06/14 14:50:23;;;;;;;;;;;;;;;;;;5092364;28;20026;-78
2022/06/14 14:52:49;;;;;;;;;;;;;;;;;;5079907;28;20411;-77
2022/06/14 14:55:15;;;;;;;;;;;;;;;;;;5080256;28;19928;-77
2022/06/14 14:57:42;;;;;;;;;;;;;;;;;;5085259;28;19924;-77
2022/06/14 15:00:09;;;;;;;;;;;;;;;;;;5067219;28;20342;-77
2022/06/14 15:05:23;;;;;;;;;;;;;;;;;;5082324;28;19931;-79
2022/06/14 15:07:50;;;;;;;;;;;;;;;;;;5099941;28;20006;-77
2022/06/14 15:10:17;;;;;;;;;;;;;;;;;;5080846;28;19920;-77
2022/06/14 15:12:46;;;;;;;;;;;;;;;;;;5067792;28;20423;-77
2022/06/14 15:15:12;;;;;;;;;;;;;;;;;;5080872;28;19939;-74
2022/06/14 15:20:22;;;;;;;;;;;;;;;;;;5083622;28;19928;-77
2022/06/14 15:22:48;;;;;;;;;;;;;;;;;;5070103;28;20018;-75
2022/06/14 15:25:14;;;;;;;;;;;;;;;;;;5084418;28;19931;-75
2022/06/14 15:27:40;;;;;;;;;;;;;;;;;;5082330;28;19932;-76
2022/06/14 15:30:06;;;;;;;;;;;;;;;;;;5083814;28;20391;-76
2022/06/14 15:32:32;;;;;;;;;;;;;;;;;;5099102;28;19928;-76
2022/06/14 15:34:58;;;;;;;;;;;;;;;;;;5101055;28;19924;-78
2022/06/14 15:37:24;;;;;;;;;;;;;;;;;;5103062;28;20394;-75
2022/06/14 15:39:50;;;;;;;;;;;;;;;;;;5099802;28;20373;-77
2022/06/14 15:42:16;;;;;;;;;;;;;;;;;;5100783;28;20428;-77
2022/06/14 15:44:42;;;;;;;;;;;;;;;;;;5081712;28;19934;-74
2022/06/14 15:47:08;;;;;;;;;;;;;;;;;;5101208;28;19924;-74
2022/06/14 15:49:34;;;;;;;;;;;;;;;;;;5101547;28;19928;-74
2022/06/14 15:52:00;;;;;;;;;;;;;;;;;;5103503;28;19924;-75
2022/06/14 15:54:26;;;;;;;;;;;;;;;;;;5098624;28;20446;-77
2022/06/14 15:56:52;;;;;;;;;;;;;;;;;;5102708;28;20382;-77
2022/06/14 15:59:18;;;;;;;;;;;;;;;;;;5070218;28;20006;-76
2022/06/14 16:01:44;;;;;;;;;;;;;;;;;;5075801;28;19932;-76
2022/06/14 16:04:09;;;;;;;;;;;;;;;;;;5103657;28;19931;-76
2022/06/14 16:06:35;;;;;;;;;;;;;;;;;;5068647;28;20359;-76
2022/06/14 16:09:01;;;;;;;;;;;;;;;;;;5082371;28;19924;-78
2022/06/14 16:11:27;;;;;;;;;;;;;;;;;;5062684;28;19923;-76
2022/06/14 16:13:53;;;;;;;;;;;;;;;;;;5082428;28;19931;-77
2022/06/14 16:16:19;;;;;;;;;;;;;;;;;;5106043;28;19928;-77
2022/06/14 16:18:45;;;;;;;;;;;;;;;;;;5076302;28;19924;-78
2022/06/14 16:21:12;;;;;;;;;;;;;;;;;;5075246;28;19931;-76
2022/06/14 16:23:38;;;;;;;;;;;;;;;;;;5076370;28;19924;-77
2022/06/14 16:26:04;;;;;;;;;;;;;;;;;;5093929;28;20019;-75
2022/06/14 16:28:30;;;;;;;;;;;;;;;;;;5083830;28;19939;-75
2022/06/14 16:30:55;;;;;;;;;;;;;;;;;;5107034;28;19969;-75
2022/06/14 16:33:21;;;;;;;;;;;;;;;;;;5075440;28;19979;-79
2022/06/14 16:35:47;;;;;;;;;;;;;;;;;;5082391;28;19930;-76
2022/06/14 16:38:14;;;;;;;;;;;;;;;;;;5090343;28;19931;-76
2022/06/14 16:40:40;;;;;;;;;;;;;;;;;;5077248;28;19938;-77
2022/06/14 16:43:06;;;;;;;;;;;;;;;;;;5086057;28;20282;-76
2022/06/14 16:45:32;;;;;;;;;;;;;;;;;;5093350;28;19931;-76
2022/06/14 16:47:57;;;;;;;;;;;;;;;;;;5093692;28;19924;-78
2022/06/14 16:50:23;;;;;;;;;;;;;;;;;;5077590;28;20367;-77
2022/06/14 16:52:49;;;;;;;;;;;;;;;;;;5095584;28;20045;-77
2022/06/14 16:55:16;;;;;;;;;;;;;;;;;;5082002;28;19924;-78